createdAt,value
2023-02-02T00:00:36.057Z,14.80
2023-02-02T00:02:00.901Z,14.30
2023-02-02T00:03:03.946Z,14.50
2023-02-02T00:04:06.908Z,14.90
2023-02-02T00:05:10.013Z,18.00
2023-02-02T00:06:13.168Z,13.70
2023-02-02T00:07:16.056Z,14.50
2023-02-02T00:08:20.593Z,14.30
2023-02-02T00:09:24.283Z,14.50
2023-02-02T00:10:27.104Z,13.60
2023-02-02T00:11:29.999Z,13.10
2023-02-02T00:12:33.109Z,14.70
2023-02-02T00:13:36.108Z,14.60
2023-02-02T00:14:38.956Z,14.00
2023-02-02T00:15:41.807Z,13.50
2023-02-02T00:16:53.001Z,14.70
2023-02-02T00:17:55.911Z,13.50
2023-02-02T00:19:20.299Z,13.50
2023-02-02T00:20:24.160Z,11.60
2023-02-02T00:21:28.312Z,13.00
2023-02-02T00:22:31.952Z,13.80
2023-02-02T00:23:35.287Z,15.60
2023-02-02T00:24:38.476Z,11.70
2023-02-02T00:25:41.345Z,11.90
2023-02-02T00:26:46.203Z,12.30
2023-02-02T00:27:50.039Z,14.50
2023-02-02T00:28:53.574Z,12.50
2023-02-02T00:29:57.761Z,14.60
2023-02-02T00:31:00.670Z,12.80
2023-02-02T00:32:03.549Z,15.50
2023-02-02T00:33:06.456Z,12.90
2023-02-02T00:34:13.985Z,12.10
2023-02-02T00:35:17.080Z,16.50
2023-02-02T00:36:20.916Z,17.10
2023-02-02T00:37:23.793Z,15.10
2023-02-02T00:38:26.691Z,13.40
2023-02-02T00:39:29.781Z,16.60
2023-02-02T00:40:32.691Z,15.20
2023-02-02T00:41:35.859Z,15.20
2023-02-02T00:42:38.680Z,17.10
2023-02-02T00:43:41.614Z,14.20
2023-02-02T00:45:03.292Z,15.70
2023-02-02T00:46:12.599Z,14.20
2023-02-02T00:47:16.926Z,14.80
2023-02-02T00:48:20.097Z,14.40
2023-02-02T00:49:23.368Z,14.90
2023-02-02T00:50:26.707Z,14.10
2023-02-02T00:51:29.629Z,17.80
2023-02-02T00:52:32.525Z,17.10
2023-02-02T00:53:35.609Z,12.10
2023-02-02T00:54:38.509Z,19.60
2023-02-02T00:55:41.396Z,14.10
2023-02-02T00:56:44.600Z,16.80
2023-02-02T00:57:48.268Z,13.30
2023-02-02T00:58:51.136Z,16.40
2023-02-02T00:59:54.034Z,13.70
2023-02-02T01:00:57.016Z,12.60
2023-02-02T01:02:00.022Z,12.10
2023-02-02T01:03:04.673Z,15.30
2023-02-02T01:04:08.342Z,18.20
2023-02-02T01:05:12.486Z,16.40
2023-02-02T01:06:15.676Z,13.70
2023-02-02T01:07:18.559Z,14.00
2023-02-02T01:08:21.482Z,11.90
2023-02-02T01:09:24.314Z,13.40
2023-02-02T01:10:28.173Z,11.70
2023-02-02T01:11:31.119Z,12.90
2023-02-02T01:12:35.053Z,11.80
2023-02-02T01:13:37.999Z,14.10
2023-02-02T01:14:40.829Z,12.70
2023-02-02T01:15:43.693Z,12.90
2023-02-02T01:16:46.940Z,16.20
2023-02-02T01:17:49.872Z,14.70
2023-02-02T01:18:52.983Z,19.70
2023-02-02T01:19:55.924Z,18.00
2023-02-02T01:21:03.495Z,14.10
2023-02-02T01:22:07.688Z,15.30
2023-02-02T01:23:10.650Z,15.90
2023-02-02T01:24:13.635Z,12.70
2023-02-02T01:25:16.746Z,12.90
2023-02-02T01:26:19.827Z,15.50
2023-02-02T01:27:23.283Z,11.50
2023-02-02T01:28:27.377Z,12.70
2023-02-02T01:29:30.594Z,12.10
2023-02-02T01:30:33.474Z,14.20
2023-02-02T01:31:36.483Z,15.40
2023-02-02T01:32:39.357Z,15.20
2023-02-02T01:33:43.924Z,16.30
2023-02-02T01:34:46.887Z,17.20
2023-02-02T01:35:54.211Z,13.60
2023-02-02T01:36:59.154Z,13.40
2023-02-02T01:38:02.022Z,14.60
2023-02-02T01:39:05.477Z,15.90
2023-02-02T01:40:09.200Z,13.80
2023-02-02T01:41:14.779Z,15.00
2023-02-02T01:42:23.076Z,16.90
2023-02-02T01:43:44.344Z,16.70
2023-02-02T01:45:05.660Z,15.90
2023-02-02T01:46:15.124Z,15.60
2023-02-02T01:47:21.125Z,13.80
2023-02-02T01:48:32.791Z,12.60
2023-02-02T01:49:36.551Z,19.00
2023-02-02T01:50:39.728Z,18.30
2023-02-02T01:51:48.835Z,14.50
2023-02-02T01:52:53.962Z,16.40
2023-02-02T01:53:59.706Z,14.20
2023-02-02T01:55:08.660Z,14.90
2023-02-02T01:56:15.762Z,16.90
2023-02-02T01:57:28.295Z,16.80
2023-02-02T01:58:35.862Z,15.80
2023-02-02T01:59:39.315Z,15.70
2023-02-02T02:00:45.097Z,15.50
2023-02-02T02:01:52.480Z,14.50
2023-02-02T02:02:59.698Z,17.90
2023-02-02T02:04:02.769Z,18.40
2023-02-02T02:05:07.962Z,16.20
2023-02-02T02:06:14.788Z,14.10
2023-02-02T02:07:17.893Z,17.20
2023-02-02T02:08:28.964Z,18.60
2023-02-02T02:09:33.702Z,14.10
2023-02-02T02:10:37.115Z,14.70
2023-02-02T02:11:40.503Z,18.60
2023-02-02T02:12:43.551Z,16.90
2023-02-02T02:14:05.783Z,17.40
2023-02-02T02:15:29.247Z,15.50
2023-02-02T02:17:00.100Z,18.60
2023-02-02T02:18:16.843Z,19.50
2023-02-02T02:20:35.614Z,15.50
2023-02-02T02:22:17.547Z,12.00
2023-02-02T02:23:44.435Z,15.90
2023-02-02T02:25:47.518Z,13.20
2023-02-02T02:27:28.350Z,17.10
2023-02-02T02:28:56.725Z,19.20
2023-02-02T02:30:15.546Z,17.00
2023-02-02T02:31:33.579Z,18.80
2023-02-02T02:32:56.883Z,19.50
2023-02-02T02:34:09.891Z,20.40
2023-02-02T02:35:40.062Z,22.50
2023-02-02T02:36:51.577Z,18.60
2023-02-02T02:38:04.655Z,23.40
2023-02-02T02:39:18.853Z,21.90
2023-02-02T02:40:43.127Z,24.70
2023-02-02T02:41:52.489Z,26.30
2023-02-02T02:43:03.562Z,26.20
2023-02-02T02:44:14.445Z,21.80
2023-02-02T02:45:18.875Z,24.90
2023-02-02T02:46:23.141Z,23.50
2023-02-02T02:47:26.335Z,23.90
2023-02-02T02:48:29.766Z,29.40
2023-02-02T02:49:32.747Z,26.20
2023-02-02T02:50:36.144Z,24.60
2023-02-02T02:51:50.011Z,24.00
2023-02-02T02:53:06.405Z,28.30
2023-02-02T02:54:11.713Z,23.20
2023-02-02T02:55:14.962Z,29.50
2023-02-02T02:56:26.828Z,26.30
2023-02-02T02:57:41.401Z,22.60
2023-02-02T02:59:10.803Z,24.30
2023-02-02T03:00:38.135Z,27.00
2023-02-02T03:02:00.266Z,27.30
2023-02-02T03:03:14.900Z,27.70
2023-02-02T03:04:33.711Z,25.20
2023-02-02T03:06:25.497Z,20.10
2023-02-02T03:07:53.498Z,20.60
2023-02-02T03:09:19.675Z,27.40
2023-02-02T03:10:28.175Z,27.10
2023-02-02T03:11:31.346Z,33.00
2023-02-02T03:12:34.499Z,25.70
2023-02-02T03:13:38.442Z,31.30
2023-02-02T03:14:41.424Z,31.10
2023-02-02T03:15:45.567Z,31.40
2023-02-02T03:16:51.743Z,36.90
2023-02-02T03:17:54.953Z,30.50
2023-02-02T03:18:58.030Z,32.20
2023-02-02T03:20:00.892Z,23.50
2023-02-02T03:21:04.034Z,33.80
2023-02-02T03:22:07.135Z,32.40
2023-02-02T03:23:10.031Z,33.40
2023-02-02T03:24:12.963Z,35.90
2023-02-02T03:25:16.596Z,32.40
2023-02-02T03:26:20.202Z,37.20
2023-02-02T03:27:23.127Z,33.50
2023-02-02T03:28:27.152Z,37.50
2023-02-02T03:29:30.127Z,29.70
2023-02-02T03:30:34.458Z,32.50
2023-02-02T03:31:37.740Z,33.10
2023-02-02T03:32:40.969Z,39.50
2023-02-02T03:33:44.920Z,28.60
2023-02-02T03:34:47.781Z,29.20
2023-02-02T03:35:50.749Z,29.20
2023-02-02T03:36:53.602Z,26.60
2023-02-02T03:37:56.553Z,28.10
2023-02-02T03:38:59.412Z,27.00
2023-02-02T03:40:02.303Z,26.00
2023-02-02T03:41:06.286Z,23.00
2023-02-02T03:42:09.258Z,25.50
2023-02-02T03:43:12.215Z,16.80
2023-02-02T03:44:15.656Z,24.60
2023-02-02T03:45:18.574Z,23.80
2023-02-02T03:46:22.114Z,23.90
2023-02-02T03:47:28.709Z,23.60
2023-02-02T03:48:35.062Z,25.70
2023-02-02T03:49:37.936Z,24.70
2023-02-02T03:50:40.822Z,25.10
2023-02-02T03:51:44.511Z,25.20
2023-02-02T03:52:47.389Z,24.60
2023-02-02T03:53:50.380Z,25.60
2023-02-02T03:54:53.400Z,17.60
2023-02-02T03:55:56.273Z,20.80
2023-02-02T03:56:59.144Z,17.40
2023-02-02T03:58:02.038Z,17.90
2023-02-02T03:59:04.998Z,27.90
2023-02-02T04:00:08.801Z,23.90
2023-02-02T04:01:15.788Z,20.40
2023-02-02T04:02:18.712Z,22.90
2023-02-02T04:03:21.810Z,17.60
2023-02-02T04:04:25.274Z,22.70
2023-02-02T04:05:28.306Z,21.20
2023-02-02T04:06:31.391Z,23.30
2023-02-02T04:07:34.327Z,29.00
2023-02-02T04:08:37.315Z,26.50
2023-02-02T04:09:40.267Z,20.90
2023-02-02T04:10:43.681Z,21.90
2023-02-02T04:11:46.548Z,22.10
2023-02-02T04:12:49.600Z,24.20
2023-02-02T04:13:52.560Z,23.10
2023-02-02T04:14:55.660Z,24.60
2023-02-02T04:16:00.435Z,22.90
2023-02-02T04:17:03.382Z,22.20
2023-02-02T04:18:06.604Z,16.50
2023-02-02T04:19:09.776Z,22.50
2023-02-02T04:20:12.711Z,14.70
2023-02-02T04:21:15.684Z,26.70
2023-02-02T04:22:18.571Z,16.80
2023-02-02T04:23:21.500Z,19.60
2023-02-02T04:24:24.386Z,24.80
2023-02-02T04:25:27.463Z,19.80
2023-02-02T04:26:30.666Z,21.30
2023-02-02T04:27:34.598Z,23.20
2023-02-02T04:28:37.509Z,14.90
2023-02-02T04:29:40.491Z,22.40
2023-02-02T04:30:43.458Z,19.10
2023-02-02T04:31:46.378Z,18.20
2023-02-02T04:32:51.232Z,16.50
2023-02-02T04:33:54.114Z,20.10
2023-02-02T04:34:56.971Z,23.40
2023-02-02T04:35:59.881Z,20.80
2023-02-02T04:37:02.801Z,21.70
2023-02-02T04:38:05.723Z,19.10
2023-02-02T04:39:11.763Z,17.30
2023-02-02T04:40:14.885Z,16.70
2023-02-02T04:41:19.056Z,20.20
2023-02-02T04:42:21.945Z,19.00
2023-02-02T04:43:25.458Z,19.30
2023-02-02T04:44:28.789Z,13.70
2023-02-02T04:45:31.725Z,14.40
2023-02-02T04:46:34.658Z,21.60
2023-02-02T04:47:37.565Z,23.50
2023-02-02T04:48:42.124Z,25.80
2023-02-02T04:49:45.109Z,20.70
2023-02-02T04:50:48.142Z,19.30
2023-02-02T04:51:51.093Z,18.90
2023-02-02T04:52:54.092Z,15.70
2023-02-02T04:53:56.979Z,18.60
2023-02-02T04:54:59.861Z,19.70
2023-02-02T04:56:13.105Z,18.30
2023-02-02T04:57:15.976Z,18.60
2023-02-02T04:58:19.699Z,19.40
2023-02-02T04:59:22.625Z,23.40
2023-02-02T05:00:25.648Z,18.00
2023-02-02T05:01:30.524Z,18.40
2023-02-02T05:02:36.790Z,22.60
2023-02-02T05:03:39.765Z,24.10
2023-02-02T05:04:42.707Z,19.60
2023-02-02T05:05:45.556Z,14.30
2023-02-02T05:06:48.445Z,17.00
2023-02-02T05:07:51.309Z,16.70
2023-02-02T05:08:54.265Z,18.20
2023-02-02T05:09:57.196Z,20.30
2023-02-02T05:11:00.112Z,16.80
2023-02-02T05:12:03.142Z,16.70
2023-02-02T05:13:06.018Z,14.20
2023-02-02T05:14:08.949Z,13.60
2023-02-02T05:15:11.811Z,15.80
2023-02-02T05:16:15.459Z,21.10
2023-02-02T05:17:18.460Z,15.80
2023-02-02T05:18:22.232Z,16.90
2023-02-02T05:19:25.160Z,18.30
2023-02-02T05:20:28.060Z,17.40
2023-02-02T05:21:30.922Z,18.10
2023-02-02T05:22:35.276Z,13.30
2023-02-02T05:23:38.177Z,17.70
2023-02-02T05:24:41.573Z,13.20
2023-02-02T05:25:44.481Z,16.10
2023-02-02T05:26:47.521Z,16.90
2023-02-02T05:27:50.485Z,10.70
2023-02-02T05:28:53.864Z,16.80
2023-02-02T05:29:56.809Z,20.30
2023-02-02T05:30:59.700Z,14.00
2023-02-02T05:32:03.217Z,19.50
2023-02-02T05:33:06.149Z,13.90
2023-02-02T05:34:11.637Z,17.40
2023-02-02T05:35:14.713Z,20.20
2023-02-02T05:36:17.872Z,16.90
2023-02-02T05:37:20.752Z,19.60
2023-02-02T05:38:23.645Z,16.00
2023-02-02T05:39:26.519Z,18.90
2023-02-02T05:40:29.744Z,19.70
2023-02-02T05:41:32.808Z,12.90
2023-02-02T05:42:35.777Z,16.30
2023-02-02T05:43:38.688Z,19.80
2023-02-02T05:44:41.549Z,14.10
2023-02-02T05:45:44.418Z,14.90
2023-02-02T05:46:47.335Z,17.20
2023-02-02T05:47:54.893Z,19.50
2023-02-02T05:49:00.392Z,15.10
2023-02-02T05:50:03.357Z,13.40
2023-02-02T05:51:21.818Z,20.00
2023-02-02T05:52:25.926Z,18.10
2023-02-02T05:53:31.174Z,16.90
2023-02-02T05:54:34.485Z,14.20
2023-02-02T05:55:37.402Z,18.80
2023-02-02T05:56:40.539Z,19.10
2023-02-02T05:57:43.431Z,14.80
2023-02-02T05:58:48.232Z,13.60
2023-02-02T05:59:51.043Z,17.10
2023-02-02T06:00:56.472Z,14.30
2023-02-02T06:01:59.726Z,17.00
2023-02-02T06:03:02.674Z,11.60
2023-02-02T06:04:05.764Z,15.70
2023-02-02T06:05:09.011Z,13.20
2023-02-02T06:06:13.407Z,19.10
2023-02-02T06:07:32.900Z,16.10
2023-02-02T06:08:36.340Z,16.40
2023-02-02T06:09:40.045Z,11.60
2023-02-02T06:10:42.990Z,15.60
2023-02-02T06:11:46.512Z,14.70
2023-02-02T06:12:49.390Z,18.80
2023-02-02T06:13:52.333Z,15.70
2023-02-02T06:14:55.279Z,13.90
2023-02-02T06:15:58.182Z,14.30
2023-02-02T06:17:01.170Z,14.70
2023-02-02T06:18:06.807Z,15.30
2023-02-02T06:19:09.862Z,13.20
2023-02-02T06:20:13.148Z,13.70
2023-02-02T06:21:16.183Z,14.20
2023-02-02T06:22:19.135Z,14.50
2023-02-02T06:23:22.059Z,12.90
2023-02-02T06:24:25.150Z,14.50
2023-02-02T06:25:28.567Z,16.40
2023-02-02T06:26:31.608Z,15.40
2023-02-02T06:27:34.548Z,15.40
2023-02-02T06:28:37.415Z,19.60
2023-02-02T06:29:40.373Z,13.90
2023-02-02T06:30:44.310Z,10.30
2023-02-02T06:31:48.040Z,14.30
2023-02-02T06:32:51.324Z,17.70
2023-02-02T06:33:57.658Z,14.00
2023-02-02T06:35:00.514Z,14.10
2023-02-02T06:36:06.207Z,12.90
2023-02-02T06:37:09.567Z,13.30
2023-02-02T06:38:12.503Z,14.70
2023-02-02T06:39:15.391Z,15.90
2023-02-02T06:40:18.418Z,10.90
2023-02-02T06:41:21.510Z,9.30
2023-02-02T06:42:24.363Z,15.30
2023-02-02T06:43:27.424Z,17.70
2023-02-02T06:44:30.568Z,11.50
2023-02-02T06:45:33.558Z,11.40
2023-02-02T06:46:36.486Z,11.30
2023-02-02T06:47:39.398Z,11.40
2023-02-02T06:48:43.164Z,16.20
2023-02-02T06:49:46.007Z,11.50
2023-02-02T06:50:48.853Z,12.30
2023-02-02T06:51:51.716Z,15.10
2023-02-02T06:52:54.808Z,19.50
2023-02-02T06:53:59.495Z,12.90
2023-02-02T06:55:02.683Z,15.40
2023-02-02T06:56:07.623Z,11.60
2023-02-02T06:57:10.601Z,8.70
2023-02-02T06:58:13.492Z,15.20
2023-02-02T06:59:16.407Z,13.50
2023-02-02T07:00:20.659Z,11.60
2023-02-02T07:01:23.737Z,13.90
2023-02-02T07:02:26.702Z,9.50
2023-02-02T07:03:30.168Z,14.60
2023-02-02T07:04:33.552Z,17.60
2023-02-02T07:05:36.458Z,14.60
2023-02-02T07:06:40.003Z,16.00
2023-02-02T07:07:42.838Z,13.40
2023-02-02T07:08:56.042Z,12.40
2023-02-02T07:10:06.525Z,14.90
2023-02-02T07:11:15.391Z,16.50
2023-02-02T07:12:19.452Z,11.70
2023-02-02T07:13:23.303Z,12.70
2023-02-02T07:14:27.098Z,14.30
2023-02-02T07:15:29.976Z,15.50
2023-02-02T07:16:33.030Z,13.60
2023-02-02T07:17:35.917Z,12.90
2023-02-02T07:18:39.705Z,17.10
2023-02-02T07:19:42.561Z,10.60
2023-02-02T07:20:45.550Z,15.00
2023-02-02T07:21:48.500Z,15.00
2023-02-02T07:22:51.454Z,12.30
2023-02-02T07:23:54.348Z,12.60
2023-02-02T07:24:57.261Z,13.00
2023-02-02T07:26:08.445Z,16.80
2023-02-02T07:27:11.481Z,15.30
2023-02-02T07:28:14.404Z,11.00
2023-02-02T07:29:17.318Z,12.20
2023-02-02T07:30:21.357Z,12.50
2023-02-02T07:31:26.682Z,14.40
2023-02-02T07:32:29.600Z,12.30
2023-02-02T07:33:32.473Z,12.20
2023-02-02T07:34:38.831Z,12.10
2023-02-02T07:35:41.719Z,15.20
2023-02-02T07:36:44.598Z,16.50
2023-02-02T07:37:53.622Z,14.30
2023-02-02T07:38:57.803Z,19.10
2023-02-02T07:40:00.672Z,25.50
2023-02-02T07:41:04.411Z,16.00
2023-02-02T07:42:08.668Z,16.60
2023-02-02T07:43:11.910Z,16.00
2023-02-02T07:44:15.835Z,14.20
2023-02-02T07:45:27.667Z,15.80
2023-02-02T07:46:31.402Z,21.40
2023-02-02T07:47:34.327Z,12.40
2023-02-02T07:48:37.355Z,12.10
2023-02-02T07:49:40.260Z,10.30
2023-02-02T07:50:43.551Z,13.30
2023-02-02T07:51:49.198Z,8.40
2023-02-02T07:52:52.716Z,13.20
2023-02-02T07:53:58.707Z,10.50
2023-02-02T07:55:13.886Z,8.30
2023-02-02T07:56:19.375Z,14.70
2023-02-02T07:57:22.215Z,10.90
2023-02-02T07:58:25.086Z,10.40
2023-02-02T07:59:28.542Z,9.10
2023-02-02T08:00:32.144Z,9.30
2023-02-02T08:01:35.143Z,6.30
2023-02-02T08:02:38.059Z,6.50
2023-02-02T08:03:42.986Z,6.40
2023-02-02T08:04:47.460Z,7.10
2023-02-02T08:05:51.227Z,8.10
2023-02-02T08:06:54.319Z,8.50
2023-02-02T08:07:57.380Z,8.00
2023-02-02T08:09:01.502Z,9.30
2023-02-02T08:10:04.735Z,9.10
2023-02-02T08:11:12.493Z,8.20
2023-02-02T08:12:16.166Z,6.90
2023-02-02T08:13:19.353Z,4.90
2023-02-02T08:14:22.205Z,6.10
2023-02-02T08:15:25.583Z,6.40
2023-02-02T08:16:30.742Z,5.20
2023-02-02T08:17:33.646Z,8.00
2023-02-02T08:18:37.387Z,7.90
2023-02-02T08:19:40.310Z,6.30
2023-02-02T08:20:43.422Z,5.80
2023-02-02T08:21:46.487Z,6.90
2023-02-02T08:22:49.399Z,7.40
2023-02-02T08:23:53.340Z,7.10
2023-02-02T08:24:56.415Z,5.70
2023-02-02T08:26:11.335Z,6.80
2023-02-02T08:27:16.341Z,6.80
2023-02-02T08:28:19.321Z,8.80
2023-02-02T08:29:22.291Z,6.50
2023-02-02T08:30:25.486Z,7.40
2023-02-02T08:31:37.808Z,7.20
2023-02-02T08:32:40.774Z,6.10
2023-02-02T08:33:43.687Z,6.10
2023-02-02T08:34:48.962Z,7.30
2023-02-02T08:35:51.847Z,6.80
2023-02-02T08:36:54.819Z,7.70
2023-02-02T08:37:57.686Z,6.70
2023-02-02T08:39:03.316Z,7.20
2023-02-02T08:40:07.449Z,9.40
2023-02-02T08:41:13.341Z,8.00
2023-02-02T08:42:16.198Z,7.30
2023-02-02T08:43:19.659Z,6.60
2023-02-02T08:44:23.531Z,9.20
2023-02-02T08:46:01.393Z,8.70
2023-02-02T08:46:51.084Z,8.40
2023-02-02T08:48:10.362Z,9.10
2023-02-02T08:49:15.566Z,7.90
2023-02-02T08:50:18.529Z,8.10
2023-02-02T08:51:21.980Z,6.70
2023-02-02T08:52:25.905Z,8.90
2023-02-02T08:53:29.756Z,8.70
2023-02-02T08:54:33.075Z,9.20
2023-02-02T08:55:36.012Z,9.50
2023-02-02T08:56:38.888Z,10.20
2023-02-02T08:57:41.828Z,10.30
2023-02-02T08:58:55.439Z,8.40
2023-02-02T08:59:59.362Z,9.80
2023-02-02T09:01:23.327Z,8.30
2023-02-02T09:02:26.605Z,9.50
2023-02-02T09:03:29.495Z,8.90
2023-02-02T09:04:32.397Z,9.60
2023-02-02T09:05:36.013Z,10.40
2023-02-02T09:06:40.627Z,10.30
2023-02-02T09:07:43.527Z,9.50
2023-02-02T09:08:47.185Z,10.70
2023-02-02T09:09:52.747Z,8.80
2023-02-02T09:10:55.631Z,7.50
2023-02-02T09:11:58.501Z,10.40
2023-02-02T09:13:01.605Z,8.80
2023-02-02T09:14:06.844Z,9.10
2023-02-02T09:15:10.548Z,9.90
2023-02-02T09:16:15.582Z,11.20
2023-02-02T09:17:18.649Z,9.00
2023-02-02T09:18:21.517Z,10.70
2023-02-02T09:19:24.330Z,9.00
2023-02-02T09:20:27.294Z,10.10
2023-02-02T09:21:30.270Z,9.50
2023-02-02T09:22:33.476Z,9.70
2023-02-02T09:23:52.204Z,10.20
2023-02-02T09:24:55.270Z,13.50
2023-02-02T09:26:08.493Z,11.90
2023-02-02T09:27:11.477Z,9.90
2023-02-02T09:28:14.405Z,11.20
2023-02-02T09:29:20.795Z,8.50
2023-02-02T09:30:23.693Z,9.90
2023-02-02T09:31:27.155Z,9.10
2023-02-02T09:32:30.237Z,7.90
2023-02-02T09:33:33.053Z,9.00
2023-02-02T09:34:36.476Z,12.40
2023-02-02T09:35:39.441Z,12.60
2023-02-02T09:36:43.503Z,10.00
2023-02-02T09:37:46.460Z,11.50
2023-02-02T09:38:51.137Z,11.60
2023-02-02T09:39:54.069Z,10.70
2023-02-02T09:40:57.048Z,12.40
2023-02-02T09:42:12.716Z,12.90
2023-02-02T09:43:15.593Z,15.10
2023-02-02T09:44:57.436Z,12.20
2023-02-02T09:46:19.702Z,15.20
2023-02-02T09:47:47.602Z,13.20
2023-02-02T09:49:05.245Z,10.00
2023-02-02T09:50:25.188Z,8.50
2023-02-02T09:51:36.421Z,8.90
2023-02-02T09:52:46.437Z,9.90
2023-02-02T09:54:04.790Z,9.30
2023-02-02T09:55:23.780Z,9.40
2023-02-02T09:56:38.803Z,9.40
2023-02-02T09:57:47.599Z,10.50
2023-02-02T09:59:10.141Z,9.60
2023-02-02T10:00:44.171Z,10.40
2023-02-02T10:01:50.713Z,10.40
2023-02-02T10:03:00.757Z,7.60
2023-02-02T10:04:14.076Z,11.00
2023-02-02T10:05:27.585Z,11.00
2023-02-02T10:06:51.163Z,9.30
2023-02-02T10:08:00.248Z,10.60
2023-02-02T10:09:26.532Z,10.40
2023-02-02T10:10:40.473Z,13.50
2023-02-02T10:12:05.557Z,10.80
2023-02-02T10:13:17.086Z,8.90
2023-02-02T10:14:40.746Z,9.70
2023-02-02T10:16:17.476Z,9.30
2023-02-02T10:17:46.934Z,11.10
2023-02-02T10:19:06.003Z,11.00
2023-02-02T10:20:50.863Z,12.00
2023-02-02T10:22:19.581Z,10.90
2023-02-02T10:23:29.372Z,6.80
2023-02-02T10:25:35.580Z,7.00
2023-02-02T10:26:43.858Z,7.10
2023-02-02T10:28:01.231Z,7.40
2023-02-02T10:29:13.932Z,8.30
2023-02-02T10:30:22.798Z,5.70
2023-02-02T10:31:42.310Z,5.80
2023-02-02T10:33:01.293Z,5.60
2023-02-02T10:34:12.290Z,7.20
2023-02-02T10:36:16.581Z,8.70
2023-02-02T10:37:42.374Z,8.70
2023-02-02T10:38:58.226Z,6.30
2023-02-02T10:40:31.644Z,6.10
2023-02-02T10:41:43.559Z,7.40
2023-02-02T10:43:39.759Z,7.20
2023-02-02T10:44:57.843Z,8.70
2023-02-02T10:46:03.848Z,6.70
2023-02-02T10:47:13.130Z,6.60
2023-02-02T10:48:32.844Z,7.80
2023-02-02T10:50:54.354Z,10.60
2023-02-02T10:52:12.059Z,6.70
2023-02-02T10:53:16.629Z,6.50
2023-02-02T10:54:55.960Z,8.40
2023-02-02T10:57:47.116Z,7.30
2023-02-02T10:59:21.997Z,8.40
2023-02-02T11:00:58.866Z,6.60
2023-02-02T11:02:18.983Z,5.80
2023-02-02T11:03:27.528Z,6.60
2023-02-02T11:04:49.845Z,8.00
2023-02-02T11:06:11.955Z,7.80
2023-02-02T11:07:20.522Z,7.60
2023-02-02T11:08:35.469Z,9.10
2023-02-02T11:09:43.005Z,8.60
2023-02-02T11:10:48.490Z,7.20
2023-02-02T11:11:55.807Z,8.20
2023-02-02T11:13:02.092Z,10.40
2023-02-02T11:14:08.150Z,9.10
2023-02-02T11:15:27.714Z,10.70
2023-02-02T11:16:42.595Z,12.00
2023-02-02T11:17:46.353Z,9.80
2023-02-02T11:18:49.788Z,8.10
2023-02-02T11:19:56.231Z,8.00
2023-02-02T11:20:59.293Z,10.00
2023-02-02T11:22:04.566Z,10.40
2023-02-02T11:23:07.696Z,8.50
2023-02-02T11:24:30.816Z,9.60
2023-02-02T11:25:38.222Z,9.50
2023-02-02T11:26:56.020Z,8.90
2023-02-02T11:28:10.386Z,8.40
2023-02-02T11:29:37.501Z,10.70
2023-02-02T11:30:40.707Z,8.20
2023-02-02T11:31:44.887Z,9.50
2023-02-02T11:32:49.721Z,7.90
2023-02-02T11:33:52.725Z,8.90
2023-02-02T11:35:14.179Z,6.80
2023-02-02T11:36:22.048Z,7.20
2023-02-02T11:37:25.079Z,7.80
2023-02-02T11:38:29.227Z,7.80
2023-02-02T11:39:32.092Z,9.90
2023-02-02T11:40:44.414Z,8.40
2023-02-02T11:41:47.557Z,9.00
2023-02-02T11:42:52.176Z,9.10
2023-02-02T11:43:57.138Z,9.90
2023-02-02T11:45:00.282Z,9.20
2023-02-02T11:46:06.973Z,10.40
2023-02-02T11:47:19.682Z,9.20
2023-02-02T11:48:28.332Z,9.90
2023-02-02T11:49:37.612Z,10.50
2023-02-02T11:50:47.608Z,9.00
2023-02-02T11:52:03.929Z,13.20
2023-02-02T11:53:07.017Z,9.80
2023-02-02T11:54:21.740Z,10.30
2023-02-02T11:55:31.210Z,11.50
2023-02-02T11:56:37.451Z,12.10
2023-02-02T11:57:40.448Z,10.20
2023-02-02T11:58:45.642Z,15.80
2023-02-02T11:59:51.513Z,13.50
2023-02-02T12:00:58.853Z,12.60
2023-02-02T12:02:20.346Z,13.70
2023-02-02T12:03:47.892Z,11.70
2023-02-02T12:04:53.422Z,12.40
2023-02-02T12:05:57.041Z,13.40
2023-02-02T12:06:59.879Z,12.00
2023-02-02T12:08:02.956Z,13.00
2023-02-02T12:09:21.609Z,17.60
2023-02-02T12:10:33.027Z,12.20
2023-02-02T12:11:55.736Z,13.80
2023-02-02T12:13:16.811Z,15.60
2023-02-02T12:14:25.385Z,13.80
2023-02-02T12:16:08.950Z,14.00
2023-02-02T12:17:31.868Z,13.10
2023-02-02T12:18:48.840Z,17.60
2023-02-02T12:20:08.410Z,12.70
2023-02-02T12:21:21.093Z,16.10
2023-02-02T12:22:44.844Z,17.80
2023-02-02T12:24:11.038Z,19.00
2023-02-02T12:25:51.947Z,14.30
2023-02-02T12:27:34.135Z,18.10
2023-02-02T12:29:05.612Z,18.50
2023-02-02T12:30:28.217Z,20.10
2023-02-02T12:31:37.384Z,20.20
2023-02-02T12:32:46.885Z,18.50
2023-02-02T12:34:15.913Z,18.90
2023-02-02T12:35:57.946Z,17.70
2023-02-02T12:37:42.706Z,17.80
2023-02-02T12:39:11.245Z,15.90
2023-02-02T12:41:10.017Z,14.80
2023-02-02T12:42:36.697Z,10.90
2023-02-02T12:43:43.356Z,11.70
2023-02-02T12:45:10.929Z,11.70
2023-02-02T12:46:26.950Z,15.80
2023-02-02T12:47:41.680Z,12.50
2023-02-02T12:48:53.264Z,11.90
2023-02-02T12:50:14.941Z,10.70
2023-02-02T12:51:29.824Z,9.80
2023-02-02T12:53:12.031Z,8.30
2023-02-02T12:55:04.099Z,8.40
2023-02-02T12:56:21.023Z,7.90
2023-02-02T12:57:40.805Z,6.60
2023-02-02T12:59:23.921Z,12.70
2023-02-02T13:00:55.124Z,7.20
2023-02-02T13:02:35.857Z,4.10
2023-02-02T13:04:07.974Z,4.10
2023-02-02T13:07:52.830Z,6.70
2023-02-02T13:09:02.454Z,5.10
2023-02-02T13:10:37.983Z,8.20
2023-02-02T13:11:50.794Z,7.60
2023-02-02T13:12:58.073Z,5.60
2023-02-02T13:14:10.122Z,5.90
2023-02-02T13:15:19.314Z,4.90
2023-02-02T13:16:23.510Z,4.90
2023-02-02T13:17:39.323Z,8.10
2023-02-02T13:18:52.054Z,7.60
2023-02-02T13:20:02.287Z,6.40
2023-02-02T13:21:08.819Z,5.30
2023-02-02T13:22:30.055Z,4.70
2023-02-02T13:23:40.951Z,4.70
2023-02-02T13:24:48.063Z,6.30
2023-02-02T13:25:58.115Z,3.50
2023-02-02T13:27:06.160Z,4.10
2023-02-02T13:28:22.238Z,5.00
2023-02-02T13:30:16.290Z,4.10
2023-02-02T13:31:29.591Z,6.60
2023-02-02T13:32:43.929Z,6.60
2023-02-02T13:33:55.150Z,5.30
2023-02-02T13:35:31.568Z,5.70
2023-02-02T13:36:39.053Z,5.50
2023-02-02T13:38:02.200Z,5.60
2023-02-02T13:39:16.326Z,6.70
2023-02-02T13:40:38.692Z,6.30
2023-02-02T13:41:43.228Z,6.80
2023-02-02T13:42:55.929Z,6.90
2023-02-02T13:44:05.707Z,7.60
2023-02-02T13:46:47.520Z,13.30
2023-02-02T13:48:09.176Z,7.90
2023-02-02T13:49:17.378Z,8.30
2023-02-02T13:50:30.484Z,7.60
2023-02-02T13:52:09.367Z,9.50
2023-02-02T13:53:53.033Z,8.40
2023-02-02T13:55:27.955Z,9.00
2023-02-02T13:56:37.441Z,7.80
2023-02-02T13:57:59.484Z,8.10
2023-02-02T13:59:47.228Z,10.30
2023-02-02T14:01:13.227Z,9.60
2023-02-02T14:02:51.621Z,6.80
2023-02-02T14:03:57.877Z,10.20
2023-02-02T14:05:04.461Z,7.10
2023-02-02T14:06:17.564Z,7.90
2023-02-02T14:07:35.536Z,8.20
2023-02-02T14:08:46.851Z,7.40
2023-02-02T14:09:50.087Z,9.00
2023-02-02T14:10:53.239Z,8.10
2023-02-02T14:12:03.389Z,7.60
2023-02-02T14:13:36.552Z,8.10
2023-02-02T14:14:49.491Z,8.00
2023-02-02T14:15:55.889Z,8.10
2023-02-02T14:17:07.247Z,8.10
2023-02-02T14:18:13.229Z,9.00
2023-02-02T14:19:35.872Z,7.40
2023-02-02T14:20:43.701Z,8.50
2023-02-02T14:21:49.649Z,6.00
2023-02-02T14:23:05.524Z,8.80
2023-02-02T14:24:26.613Z,6.80
2023-02-02T14:25:29.540Z,6.10
2023-02-02T14:26:50.004Z,9.20
2023-02-02T14:28:01.246Z,5.40
2023-02-02T14:29:24.074Z,5.90
2023-02-02T14:30:30.192Z,5.90
2023-02-02T14:31:52.404Z,6.80
2023-02-02T14:33:24.472Z,7.10
2023-02-02T14:34:36.464Z,7.00
2023-02-02T14:35:42.046Z,6.60
2023-02-02T14:37:13.596Z,10.30
2023-02-02T14:38:49.651Z,7.90
2023-02-02T14:40:10.412Z,6.60
2023-02-02T14:41:39.094Z,5.10
2023-02-02T14:43:25.151Z,7.40
2023-02-02T14:44:28.720Z,5.60
2023-02-02T14:45:34.289Z,6.80
2023-02-02T14:46:48.262Z,7.40
2023-02-02T14:49:41.401Z,5.00
2023-02-02T14:50:52.880Z,6.00
2023-02-02T14:52:02.197Z,5.20
2023-02-02T14:53:19.753Z,4.00
2023-02-02T14:54:33.563Z,4.10
2023-02-02T14:55:51.527Z,6.20
2023-02-02T14:56:59.096Z,5.30
2023-02-02T14:58:06.035Z,5.00
2023-02-02T14:59:20.067Z,4.30
2023-02-02T15:00:28.178Z,3.70
2023-02-02T15:01:37.367Z,4.90
2023-02-02T15:02:40.204Z,4.60
2023-02-02T15:04:24.366Z,4.30
2023-02-02T15:05:38.907Z,4.10
2023-02-02T15:06:43.276Z,4.90
2023-02-02T15:07:54.552Z,4.90
2023-02-02T15:09:29.206Z,5.30
2023-02-02T15:11:00.484Z,5.50